Hamburg, Wisconsin
Current Conditions -  °F | °C
As of 1:15 AM on Saturday 29 Nov 2014 (Local Time) from KMDZ Reporting Station
Haze Haze  
Wind Chill: 11°   Ceiling: 500
Heat Index: 19°   Visibility: 4mi
Dew Point: 18°   Wind: 6mph
Humidity: 93%   Direction: 110°ESE
Pressure: 29.7"   Gusts: NA
Location:  45.0406°N, 90.0529°W
Report Text: KMDZ 290715Z AUTO 11005KT 4SM BR OVC005 M07/M08 A2970 RMK AO2 T10711080
Loading
Personal Weather Stations






























Interactive Weather Map New forecast layout! Learn more

10-Day Weather Forecast

Advertisements
Track Severe Weather on mobile